Time;durP1;ratioP1;P1;durP2;ratioP2;P2;SDS_P1;SDS_P2;PMS_P1;PMS_P2;Temp;Humidity;BMP_temperature;BMP_pressure;BME280_temperature;BME280_humidity;BME280_pressure;Samples;Min_cycle;Max_cycle;Signal;HPM_P1;HPM_P2
2020/12/11 00:00:35;;;;;;;110.40;38.50;;;;;;;2.26;100.00;99695.97;5218892;28;20013;-78
2020/12/11 00:03:05;;;;;;;109.68;38.08;;;;;;;2.29;100.00;99683.03;5214898;28;20029;-78
2020/12/11 00:05:36;;;;;;;114.78;37.95;;;;;;;2.30;100.00;99677.88;5219749;28;20029;-78
2020/12/11 00:08:09;;;;;;;105.95;37.10;;;;;;;2.36;100.00;99682.06;5210181;28;20034;-78
2020/12/11 00:10:39;;;;;;;108.45;38.42;;;;;;;2.29;100.00;99680.44;5210428;28;20036;-77
2020/12/11 00:13:10;;;;;;;109.57;39.00;;;;;;;2.30;100.00;99679.59;5219798;28;20017;-78
2020/12/11 00:15:40;;;;;;;111.15;38.78;;;;;;;2.38;100.00;99677.72;5215160;28;20029;-78
2020/12/11 00:18:10;;;;;;;110.45;37.45;;;;;;;2.28;100.00;99678.75;5209527;28;20033;-78
2020/12/11 00:20:40;;;;;;;110.18;38.25;;;;;;;2.34;100.00;99678.66;5211738;28;20037;-78
2020/12/11 00:23:11;;;;;;;107.57;37.10;;;;;;;2.33;100.00;99671.81;5225859;28;20640;-78
2020/12/11 00:25:41;;;;;;;103.07;37.88;;;;;;;2.38;100.00;99681.19;5220269;28;20031;-79
2020/12/11 00:28:11;;;;;;;105.00;38.42;;;;;;;2.32;100.00;99670.94;5225726;28;20032;-78
2020/12/11 00:30:41;;;;;;;110.45;39.28;;;;;;;2.23;100.00;99672.84;5224588;28;20154;-78
2020/12/11 00:33:12;;;;;;;112.30;38.50;;;;;;;2.37;100.00;99669.13;5219370;28;20028;-78
2020/12/11 00:35:42;;;;;;;107.35;39.80;;;;;;;2.35;100.00;99667.47;5226198;28;20059;-78
2020/12/11 00:38:12;;;;;;;114.93;40.65;;;;;;;2.38;100.00;99659.69;5213689;28;20064;-78
2020/12/11 00:40:43;;;;;;;117.95;39.08;;;;;;;2.35;100.00;99667.47;5217795;28;20063;-78
2020/12/11 00:43:13;;;;;;;112.57;39.38;;;;;;;2.37;100.00;99655.41;5227163;28;20490;-78
2020/12/11 00:45:43;;;;;;;114.32;39.17;;;;;;;2.38;100.00;99662.25;5222205;28;20021;-78
2020/12/11 00:48:14;;;;;;;110.75;39.40;;;;;;;2.34;100.00;99652.91;5231494;28;20032;-78
2020/12/11 00:50:44;;;;;;;113.68;39.58;;;;;;;2.34;100.00;99651.16;5230423;28;20079;-78
2020/12/11 00:53:14;;;;;;;107.50;39.88;;;;;;;2.40;100.00;99652.78;5230471;28;20035;-78
2020/12/11 00:55:45;;;;;;;117.22;39.47;;;;;;;2.45;100.00;99654.41;5226833;28;20163;-78
2020/12/11 00:58:15;;;;;;;114.65;39.92;;;;;;;2.34;100.00;99650.31;5216642;28;20479;-77
2020/12/11 01:00:46;;;;;;;112.55;39.17;;;;;;;2.35;100.00;99644.28;5228316;28;20113;-78
2020/12/11 01:03:16;;;;;;;123.07;39.08;;;;;;;2.46;100.00;99644.91;5229289;28;20040;-78
2020/12/11 01:05:46;;;;;;;106.43;40.00;;;;;;;2.36;100.00;99643.41;5228802;28;20043;-78
2020/12/11 01:08:16;;;;;;;115.65;39.83;;;;;;;2.42;100.00;99640.72;5228903;28;20475;-78
2020/12/11 01:10:47;;;;;;;111.40;38.72;;;;;;;2.33;100.00;99635.72;5228135;28;20036;-78
2020/12/11 01:13:17;;;;;;;111.45;39.60;;;;;;;2.40;100.00;99632.16;5208323;28;20159;-78
2020/12/11 01:15:47;;;;;;;116.03;38.72;;;;;;;2.40;100.00;99627.00;5214755;28;20673;-78
2020/12/11 01:18:18;;;;;;;107.38;38.40;;;;;;;2.36;100.00;99630.53;5222591;28;20033;-78
2020/12/11 01:20:48;;;;;;;115.43;39.95;;;;;;;2.46;100.00;99626.88;5224488;28;20495;-78
2020/12/11 01:23:18;;;;;;;106.95;38.60;;;;;;;2.50;100.00;99621.63;5227019;28;20052;-78
2020/12/11 01:25:49;;;;;;;111.07;39.38;;;;;;;2.40;100.00;99621.84;5226820;28;20021;-78
2020/12/11 01:28:19;;;;;;;111.93;39.28;;;;;;;2.38;100.00;99614.16;5219278;28;20031;-78
2020/12/11 01:30:49;;;;;;;98.90;36.63;;;;;;;2.52;100.00;99616.47;5228094;28;20036;-78
2020/12/11 01:33:19;;;;;;;99.20;37.35;;;;;;;2.48;100.00;99613.09;5228435;28;20021;-78
2020/12/11 01:35:50;;;;;;;104.57;36.78;;;;;;;2.55;100.00;99600.94;5229443;28;20036;-78
2020/12/11 01:38:21;;;;;;;95.72;34.55;;;;;;;2.58;100.00;99598.28;5230204;28;20017;-78
2020/12/11 01:40:51;;;;;;;87.15;33.38;;;;;;;2.60;100.00;99589.66;5229842;28;20029;-78
2020/12/11 01:43:22;;;;;;;80.80;33.83;;;;;;;2.54;100.00;99597.50;5211392;28;20028;-77
2020/12/11 01:45:52;;;;;;;79.22;31.33;;;;;;;2.68;100.00;99589.50;5216435;28;20133;-78
2020/12/11 01:48:22;;;;;;;79.38;31.60;;;;;;;2.46;100.00;99578.75;5207580;28;20014;-78
2020/12/11 01:50:53;;;;;;;82.95;32.35;;;;;;;2.37;100.00;99575.50;5208855;28;20510;-78
2020/12/11 01:53:25;;;;;;;86.93;33.22;;;;;;;2.33;100.00;99568.72;5208030;28;20175;-78
2020/12/11 01:55:55;;;;;;;90.78;34.13;;;;;;;2.18;100.00;99563.84;5208461;28;20076;-78
2020/12/11 01:58:30;;;;;;;94.72;34.25;;;;;;;2.12;100.00;99554.50;5217274;28;20025;-78
2020/12/11 02:01:02;;;;;;;96.10;35.45;;;;;;;2.10;100.00;99555.38;5228797;28;20491;-78
2020/12/11 02:03:32;;;;;;;87.30;33.33;;;;;;;2.20;100.00;99536.31;5228285;28;20025;-78
2020/12/11 02:06:03;;;;;;;82.97;33.55;;;;;;;2.32;100.00;99541.25;5228684;28;20163;-78
2020/12/11 02:08:33;;;;;;;88.75;33.30;;;;;;;2.17;100.00;99544.13;5228612;28;20021;-78
2020/12/11 02:11:04;;;;;;;89.43;34.05;;;;;;;2.20;100.00;99538.91;5228050;28;20154;-78
2020/12/11 02:16:22;;;;;;;80.95;31.38;;;;;;;2.37;100.00;99544.56;5277462;22;20179;-89
2020/12/11 02:19:09;;;;;;;74.65;30.65;;;;;;;2.38;100.00;99541.97;5239166;28;20080;-89
2020/12/11 02:21:52;;;;;;;70.60;30.10;;;;;;;2.67;100.00;99534.50;5223402;28;20548;-89
2020/12/11 02:24:55;;;;;;;66.28;29.05;;;;;;;2.68;100.00;99532.78;5222664;28;20029;-90
2020/12/11 02:27:34;;;;;;;65.13;28.50;;;;;;;2.62;100.00;99526.00;5215581;28;20033;-89
2020/12/11 02:30:14;;;;;;;68.40;29.83;;;;;;;2.72;100.00;99532.66;5222469;28;20025;-88
2020/12/11 02:33:01;;;;;;;72.90;30.35;;;;;;;2.66;100.00;99531.97;5226310;28;20112;-88
2020/12/11 02:35:37;;;;;;;79.03;31.48;;;;;;;2.63;100.00;99519.97;5227354;28;20021;-89
2020/12/11 02:38:18;;;;;;;77.57;32.63;;;;;;;2.57;100.00;99521.81;5226879;28;20028;-89
2020/12/11 02:41:09;;;;;;;86.15;33.13;;;;;;;2.57;100.00;99521.81;5226451;28;20037;-88
2020/12/11 02:46:48;;;;;;;96.82;35.65;;;;;;;2.47;100.00;99512.59;5216209;28;20033;-89
2020/12/11 02:49:23;;;;;;;91.38;35.25;;;;;;;2.47;100.00;99513.44;5228096;28;20417;-88
2020/12/11 02:51:54;;;;;;;94.10;35.95;;;;;;;2.41;100.00;99500.69;5226202;28;20044;-89
2020/12/11 02:54:30;;;;;;;100.18;36.78;;;;;;;2.39;100.00;99501.56;5226710;28;20086;-89
2020/12/11 02:57:09;;;;;;;95.63;35.72;;;;;;;2.45;100.00;99502.31;5226350;28;20615;-89
2020/12/11 03:00:05;;;;;;;101.75;36.30;;;;;;;2.42;100.00;99506.66;5225604;28;20037;-89
2020/12/11 03:02:36;;;;;;;94.10;35.20;;;;;;;2.40;100.00;99487.81;5226577;28;20615;-88
2020/12/11 03:08:40;;;;;;;107.82;36.30;;;;;;;2.37;100.00;99477.56;5227657;28;20029;-89
2020/12/11 03:11:13;;;;;;;94.15;34.47;;;;;;;2.32;100.00;99466.50;5225886;28;20033;-90
2020/12/11 03:13:57;;;;;;;93.80;33.88;;;;;;;2.27;100.00;99471.75;5225667;28;20588;-90
2020/12/11 03:16:47;;;;;;;92.20;34.50;;;;;;;2.26;100.00;99458.88;5225515;28;20021;-89
2020/12/11 03:19:25;;;;;;;94.07;35.33;;;;;;;2.25;100.00;99459.75;5225375;28;20041;-89
2020/12/11 03:22:01;;;;;;;101.93;36.63;;;;;;;2.21;100.00;99466.72;5225868;28;20024;-89
2020/12/11 03:24:36;;;;;;;96.88;34.92;;;;;;;2.19;100.00;99467.63;5225687;28;20044;-89
2020/12/11 03:27:21;;;;;;;;;;;;;;;2.26;100.00;99454.59;5225835;28;20017;-89
2020/12/11 03:30:07;;;;;;;90.82;33.47;;;;;;;2.19;100.00;99452.16;5223785;28;20034;-89
2020/12/11 03:32:56;;;;;;;95.63;34.40;;;;;;;2.17;100.00;99444.44;5225783;28;20025;-89
2020/12/11 03:35:40;;;;;;;94.35;34.28;;;;;;;2.17;100.00;99441.88;5224987;28;20056;-89
2020/12/11 03:38:20;;;;;;;98.45;35.53;;;;;;;2.28;100.00;99441.66;5225892;28;20389;-89
2020/12/11 03:41:06;;;;;;;96.30;35.92;;;;;;;2.27;100.00;99445.97;5227035;28;20025;-89
2020/12/11 03:43:45;;;;;;;94.50;34.88;;;;;;;2.25;100.00;99445.16;5225654;28;20597;-89
2020/12/11 03:46:52;;;;;;;96.63;34.60;;;;;;;2.20;100.00;99443.56;5225279;28;20040;-89
2020/12/11 03:49:57;;;;;;;86.97;32.63;;;;;;;2.31;100.00;99436.47;5226577;28;20112;-89
2020/12/11 03:52:46;;;;;;;92.63;34.03;;;;;;;2.30;100.00;99432.19;5222700;28;20520;-88
2020/12/11 03:55:24;;;;;;;92.47;33.05;;;;;;;2.34;100.00;99420.94;5225230;28;20029;-89
2020/12/11 03:58:14;;;;;;;84.07;32.28;;;;;;;2.29;100.00;99433.03;5225224;28;20039;-89
2020/12/11 04:00:49;;;;;;;91.32;33.58;;;;;;;2.30;100.00;99430.44;5224782;28;20032;-88
2020/12/11 04:03:32;;;;;;;89.97;33.70;;;;;;;2.28;100.00;99426.19;5225297;28;20682;-89
2020/12/11 04:06:21;;;;;;;86.97;33.30;;;;;;;2.27;100.00;99421.91;5225216;28;20482;-89
2020/12/11 04:09:05;;;;;;;97.45;33.85;;;;;;;2.31;100.00;99426.16;5224937;28;20589;-88
2020/12/11 04:11:50;;;;;;;97.68;34.45;;;;;;;2.30;100.00;99424.47;5225521;28;20048;-89
2020/12/11 04:14:44;;;;;;;101.80;34.33;;;;;;;2.24;100.00;99419.41;5224919;28;20524;-89
2020/12/11 04:17:21;;;;;;;99.05;34.67;;;;;;;2.31;100.00;99413.28;5220218;28;20037;-89
2020/12/11 04:20:03;;;;;;;101.60;34.42;;;;;;;2.26;100.00;99407.34;5224809;28;20544;-89
2020/12/11 04:22:53;;;;;;;;;;;;;;;;;;;;;
2020/12/11 04:25:26;;;;;;;94.32;33.33;;;;;;;2.24;100.00;99396.22;5226145;28;20031;-89
2020/12/11 04:28:30;;;;;;;89.90;33.53;;;;;;;2.21;100.00;99404.03;5224621;28;20032;-89
2020/12/11 04:31:00;;;;;;;95.65;34.40;;;;;;;2.32;100.00;99412.38;5224576;28;20048;-88
2020/12/11 04:33:40;;;;;;;95.68;33.53;;;;;;;2.21;100.00;99401.44;5224806;28;20029;-90
2020/12/11 04:36:35;;;;;;;100.38;34.63;;;;;;;2.26;100.00;99391.88;5224433;28;20036;-89
2020/12/11 04:39:22;;;;;;;90.50;30.70;;;;;;;2.25;100.00;99396.19;5224509;28;20028;-89
2020/12/11 04:42:05;;;;;;;94.70;32.13;;;;;;;2.27;100.00;99403.88;5225695;28;20136;-89
2020/12/11 04:44:47;;;;;;;100.93;33.25;;;;;;;2.24;100.00;99398.78;5223669;28;20726;-90
2020/12/11 04:47:24;;;;;;;104.78;34.45;;;;;;;2.20;100.00;99403.16;5224090;28;20032;-89
2020/12/11 04:50:07;;;;;;;106.80;35.33;;;;;;;2.12;100.00;99399.91;5225249;28;20032;-89
2020/12/11 04:52:46;;;;;;;98.18;34.47;;;;;;;2.15;100.00;99388.69;5223599;28;20028;-88
2020/12/11 04:55:31;;;;;;;97.95;33.90;;;;;;;2.14;100.00;99393.00;5219173;28;20506;-89
2020/12/11 05:01:31;;;;;;;90.28;31.35;;;;;;;2.12;100.00;99375.84;5223611;28;20670;-89
2020/12/11 05:04:15;;;;;;;103.10;33.08;;;;;;;2.07;100.00;99369.97;5203766;28;20425;-90
2020/12/11 05:07:17;;;;;;;102.55;34.55;;;;;;;2.07;100.00;99360.53;5203294;28;20033;-89
2020/12/11 05:10:09;;;;;;;98.53;32.95;;;;;;;2.13;100.00;99360.38;5300598;23;20068;-89
2020/12/11 05:12:58;;;;;;;91.72;32.17;;;;;;;2.07;100.00;99362.22;5226806;28;20055;-89
2020/12/11 05:15:43;;;;;;;99.50;32.03;;;;;;;2.10;100.00;99354.44;5225483;28;20029;-89
2020/12/11 05:18:19;;;;;;;95.05;32.15;;;;;;;2.05;100.00;99362.28;5225636;28;20155;-89
2020/12/11 05:21:21;;;;;;;92.40;32.50;;;;;;;2.08;100.00;99358.78;5224414;28;20025;-89
2020/12/11 05:24:04;;;;;;;96.25;33.33;;;;;;;2.02;100.00;99361.50;5224398;28;20374;-89
2020/12/11 05:29:45;;;;;;;93.30;31.80;;;;;;;2.01;100.00;99359.81;5224771;28;20029;-89
2020/12/11 05:32:46;;;;;;;96.40;33.70;;;;;;;1.99;100.00;99367.53;5224509;28;20456;-88
2020/12/11 05:35:17;;;;;;;95.18;32.60;;;;;;;2.03;100.00;99368.34;5224799;28;20716;-90
2020/12/11 05:38:15;;;;;;;106.68;35.50;;;;;;;2.03;100.00;99368.34;5224288;28;20025;-88
2020/12/11 05:40:54;;;;;;;105.63;35.67;;;;;;;2.01;100.00;99370.94;5225267;28;20526;-89
2020/12/11 05:43:38;;;;;;;112.30;34.83;;;;;;;2.03;100.00;99363.19;5227677;28;20433;-88
2020/12/11 05:46:34;;;;;;;105.70;35.13;;;;;;;2.01;100.00;99358.06;5231115;28;20037;-90
2020/12/11 05:49:32;;;;;;;100.93;35.67;;;;;;;2.02;100.00;99361.50;5223244;28;20036;-90
2020/12/11 05:52:38;;;;;;;104.80;35.33;;;;;;;2.02;100.00;99362.31;5224368;28;20041;-90
2020/12/11 05:55:33;;;;;;;105.28;35.60;;;;;;;2.04;100.00;99359.72;5223680;28;20024;-89
2020/12/11 05:58:16;;;;;;;112.30;35.15;;;;;;;2.04;100.00;99359.72;5224457;28;20029;-90
2020/12/11 06:01:57;;;;;;;97.20;35.05;;;;;;;2.07;100.00;99360.53;5242039;28;20530;-89
2020/12/11 06:04:36;;;;;;;101.30;35.13;;;;;;;2.12;100.00;99358.69;5232400;28;20040;-89
2020/12/11 06:07:22;;;;;;;98.20;34.88;;;;;;;2.12;100.00;99360.41;5248427;28;20179;-89
2020/12/11 06:13:56;;;;;;;100.43;34.22;;;;;;;2.16;100.00;99354.31;5217145;28;20061;-90
2020/12/11 06:16:31;;;;;;;99.80;34.60;;;;;;;2.12;100.00;99357.81;5239599;28;20025;-89
2020/12/11 06:19:15;;;;;;;103.18;35.45;;;;;;;2.19;100.00;99361.97;5228324;28;20070;-90
2020/12/11 06:21:52;;;;;;;98.47;34.45;;;;;;;2.19;100.00;99359.41;5243649;28;20032;-87
2020/12/11 06:24:30;;;;;;;94.32;33.97;;;;;;;2.15;100.00;99363.78;5248418;28;20554;-87
2020/12/11 06:27:44;;;;;;;95.05;33.28;;;;;;;2.20;100.00;99366.25;5250137;28;20480;-89
2020/12/11 06:30:33;;;;;;;93.95;33.50;;;;;;;2.19;100.00;99359.41;5237807;28;20100;-89
2020/12/11 06:33:12;;;;;;;93.63;34.97;;;;;;;2.25;100.00;99359.25;5230305;28;20021;-86
2020/12/11 06:36:02;;;;;;;91.18;34.00;;;;;;;2.38;100.00;99358.13;5231067;28;20029;-86
2020/12/11 06:39:12;;;;;;;94.70;34.20;;;;;;;2.27;100.00;99353.22;5233839;28;20464;-88
2020/12/11 06:41:52;;;;;;;98.93;34.45;;;;;;;2.31;100.00;99359.16;5180295;28;20025;-88
2020/12/11 06:44:45;;;;;;;97.13;33.42;;;;;;;2.34;100.00;99351.34;5240231;28;20051;-87
2020/12/11 06:47:25;;;;;;;98.05;35.40;;;;;;;2.23;100.00;99351.59;5245819;28;20552;-86
2020/12/11 06:50:07;;;;;;;97.57;34.95;;;;;;;2.28;100.00;99359.19;5252949;28;20032;-86
2020/12/11 06:53:02;;;;;;;100.72;35.72;;;;;;;2.29;100.00;99348.84;5253757;28;20080;-86
2020/12/11 06:55:55;;;;;;;102.40;34.65;;;;;;;2.31;100.00;99349.66;5245177;28;20029;-86
2020/12/11 06:59:22;;;;;;;105.30;35.42;;;;;;;2.32;100.00;99350.53;5241875;28;20028;-87
2020/12/11 07:02:01;;;;;;;103.25;36.08;;;;;;;2.28;100.00;99341.16;5239279;28;20139;-87
2020/12/11 07:04:59;;;;;;;98.60;34.95;;;;;;;2.30;100.00;99340.25;5241995;28;20024;-86
2020/12/11 07:07:30;;;;;;;103.28;35.38;;;;;;;2.33;100.00;99337.59;5232287;28;20031;-89
2020/12/11 07:10:14;;;;;;;101.15;35.17;;;;;;;2.28;100.00;99333.41;5232183;28;20025;-87
2020/12/11 07:12:51;;;;;;;103.70;36.45;;;;;;;2.33;100.00;99326.47;5238489;28;20070;-87
2020/12/11 07:15:26;;;;;;;104.68;35.60;;;;;;;2.31;100.00;99328.22;5240043;28;20123;-86
2020/12/11 07:18:07;;;;;;;110.22;35.50;;;;;;;2.33;100.00;99326.47;5251080;28;20104;-86
2020/12/11 07:20:50;;;;;;;101.45;36.00;;;;;;;2.27;100.00;99319.69;5251530;28;20032;-86
2020/12/11 07:23:24;;;;;;;100.80;34.97;;;;;;;2.34;100.00;99313.50;5251902;28;20063;-87
2020/12/11 07:25:57;;;;;;;94.85;34.25;;;;;;;2.39;100.00;99316.00;5252271;28;20085;-89
2020/12/11 07:28:36;;;;;;;103.32;36.15;;;;;;;2.34;100.00;99313.50;5242042;28;20402;-86
2020/12/11 07:31:22;;;;;;;102.13;34.95;;;;;;;2.32;100.00;99306.72;5232015;28;20029;-86
2020/12/11 07:34:11;;;;;;;104.05;35.47;;;;;;;2.36;100.00;99301.44;5230639;28;20108;-87
2020/12/11 07:37:07;;;;;;;102.70;35.42;;;;;;;2.35;100.00;99298.91;5231214;28;20029;-88
2020/12/11 07:39:37;;;;;;;110.07;35.20;;;;;;;2.42;100.00;99300.44;5245278;23;20140;-79
2020/12/11 07:42:09;;;;;;;113.65;37.00;;;;;;;2.43;100.00;99292.69;5233624;28;20108;-79
2020/12/11 07:44:40;;;;;;;118.43;37.42;;;;;;;2.46;100.00;99295.19;5219292;28;20612;-79
2020/12/11 07:47:13;;;;;;;135.77;40.50;;;;;;;2.44;100.00;99289.22;5205694;28;20116;-79
2020/12/11 07:49:45;;;;;;;135.13;41.42;;;;;;;2.54;100.00;99295.84;5207321;28;20029;-79
2020/12/11 07:52:25;;;;;;;131.80;41.50;;;;;;;2.54;100.00;99293.25;5207763;28;20057;-79
2020/12/11 07:54:55;;;;;;;137.15;41.67;;;;;;;2.55;100.00;99288.97;5204856;28;20032;-79
2020/12/11 07:57:25;;;;;;;139.95;40.67;;;;;;;2.54;100.00;99290.69;5207698;28;20096;-79
2020/12/11 08:00:07;;;;;;;141.57;42.38;;;;;;;2.52;100.00;99286.47;5208353;28;20025;-79
2020/12/11 08:02:37;;;;;;;134.70;42.25;;;;;;;2.56;100.00;99285.50;5207325;28;20022;-79
2020/12/11 08:05:08;;;;;;;148.40;41.58;;;;;;;2.58;100.00;99288.88;5205458;28;20117;-79
2020/12/11 08:07:38;;;;;;;143.80;41.22;;;;;;;2.53;100.00;99281.25;5205962;28;20029;-79
2020/12/11 08:10:13;;;;;;;131.68;40.60;;;;;;;2.61;100.00;99281.06;5213829;28;20033;-79
2020/12/11 08:12:45;;;;;;;138.77;39.75;;;;;;;2.54;100.00;99277.78;5209250;28;20032;-79
2020/12/11 08:15:35;;;;;;;124.22;39.83;;;;;;;2.61;100.00;99286.22;5251219;22;20040;-78
2020/12/11 08:18:20;;;;;;;132.30;38.97;;;;;;;2.53;100.00;99278.69;5235947;28;20599;-80
2020/12/11 08:21:00;;;;;;;126.60;39.70;;;;;;;2.58;100.00;99270.84;5229277;28;20036;-79
2020/12/11 08:23:39;;;;;;;135.80;40.90;;;;;;;2.51;100.00;99270.16;5232035;28;20040;-78
2020/12/11 08:26:12;;;;;;;126.57;39.95;;;;;;;2.53;100.00;99260.63;5219109;28;20084;-79
2020/12/11 08:28:45;;;;;;;134.60;39.42;;;;;;;2.46;100.00;99256.53;5214309;28;20033;-77
2020/12/11 08:31:27;;;;;;;131.43;40.17;;;;;;;2.53;100.00;99252.06;5214699;28;20478;-80
2020/12/11 08:34:16;;;;;;;110.03;34.92;;;;;;;2.50;100.00;99257.31;5213516;28;20061;-80
2020/12/11 08:36:47;;;;;;;129.82;38.22;;;;;;;2.45;100.00;99256.56;5213129;28;20483;-79
2020/12/11 08:39:24;;;;;;;120.18;37.00;;;;;;;2.46;100.00;99246.22;5213795;28;20021;-79
2020/12/11 08:45:04;;;;;;;117.95;35.95;;;;;;;2.47;100.00;99240.19;5231694;28;20101;-79
2020/12/11 08:47:56;;;;;;;132.43;38.00;;;;;;;2.49;100.00;99235.00;5217299;28;20021;-78
2020/12/11 08:50:33;;;;;;;111.57;37.72;;;;;;;2.51;100.00;99226.31;5214189;28;20040;-80
2020/12/11 08:53:07;;;;;;;116.70;35.80;;;;;;;2.58;100.00;99227.88;5213551;28;20033;-79
2020/12/11 08:55:38;;;;;;;103.53;33.95;;;;;;;2.64;100.00;99225.13;5215021;28;20026;-77
2020/12/11 08:58:08;;;;;;;100.30;33.30;;;;;;;2.62;100.00;99226.91;5235096;28;20025;-80
2020/12/11 09:00:39;;;;;;;96.88;32.90;;;;;;;2.65;100.00;99221.66;5235520;28;20531;-79
2020/12/11 09:03:09;;;;;;;103.78;32.72;;;;;;;2.62;100.00;99211.44;5236384;28;20091;-76
2020/12/11 09:05:39;;;;;;;94.45;31.67;;;;;;;2.72;100.00;99205.13;5231987;28;20496;-76
2020/12/11 09:08:09;;;;;;;92.45;31.20;;;;;;;2.80;100.00;99205.78;5232152;28;20466;-78
2020/12/11 09:10:40;;;;;;;92.40;31.52;;;;;;;2.74;100.00;99210.25;5232734;28;20029;-78
2020/12/11 09:13:10;;;;;;;95.43;34.20;;;;;;;2.68;100.00;99205.28;5230946;28;20025;-80
2020/12/11 09:15:40;;;;;;;92.88;33.95;;;;;;;2.77;100.00;99205.88;5229369;28;20033;-79
2020/12/11 09:18:10;;;;;;;98.50;32.58;;;;;;;2.81;100.00;99207.50;5218507;28;20021;-79
2020/12/11 09:20:41;;;;;;;103.00;33.95;;;;;;;2.74;100.00;99203.38;5234449;28;20104;-80
2020/12/11 09:23:11;;;;;;;99.88;33.08;;;;;;;2.89;100.00;99209.88;5233839;28;20033;-78
2020/12/11 09:25:41;;;;;;;89.72;32.22;;;;;;;2.83;100.00;99210.03;5233086;28;20047;-79
2020/12/11 09:28:15;;;;;;;92.18;32.42;;;;;;;2.93;100.00;99207.16;5215592;28;20107;-76
2020/12/11 09:30:47;;;;;;;94.90;31.23;;;;;;;2.90;100.00;99208.97;5214017;28;20029;-80
2020/12/11 09:33:20;;;;;;;93.18;32.42;;;;;;;2.88;100.00;99200.44;5213821;28;20025;-79
2020/12/11 09:35:51;;;;;;;91.20;31.80;;;;;;;2.97;100.00;99208.78;5214087;28;20025;-78
2020/12/11 09:38:21;;;;;;;96.32;34.05;;;;;;;3.00;100.00;99200.13;5215705;28;20021;-78
2020/12/11 09:40:59;;;;;;;91.13;32.20;;;;;;;2.95;100.00;99199.38;5218685;28;20029;-76
2020/12/11 09:46:35;;;;;;;86.43;31.17;;;;;;;2.99;100.00;99188.94;5218501;28;20025;-80
2020/12/11 09:49:22;;;;;;;92.05;32.67;;;;;;;3.01;100.00;99188.91;5225481;28;20116;-78
2020/12/11 09:54:28;;;;;;;94.25;32.42;;;;;;;3.03;100.00;99187.13;5223570;28;20526;-80
2020/12/11 09:56:59;;;;;;;90.57;31.27;;;;;;;3.19;100.00;99183.22;5222041;28;20040;-80
2020/12/11 09:59:34;;;;;;;94.95;32.55;;;;;;;3.11;100.00;99187.75;5215395;28;20697;-77
2020/12/11 10:04:53;;;;;;;89.50;31.52;;;;;;;3.19;100.00;99188.38;5217877;28;20055;-80
2020/12/11 10:07:23;;;;;;;91.28;31.67;;;;;;;3.11;100.00;99182.56;5221421;28;20287;-78
2020/12/11 10:09:54;;;;;;;93.10;32.42;;;;;;;3.14;100.00;99179.91;5225418;28;20031;-77
2020/12/11 10:12:27;;;;;;;91.93;33.08;;;;;;;3.16;100.00;99178.16;5219435;28;20284;-78
2020/12/11 10:15:00;;;;;;;90.22;32.15;;;;;;;3.15;100.00;99172.13;5217761;28;20017;-79
2020/12/11 10:17:31;;;;;;;94.88;32.97;;;;;;;3.25;100.00;99172.72;5225273;28;20025;-79
2020/12/11 10:20:02;;;;;;;89.65;31.92;;;;;;;3.32;100.00;99169.06;5228700;28;20037;-78
2020/12/11 10:22:32;;;;;;;83.75;29.23;;;;;;;3.33;100.00;99170.78;5228437;28;20025;-76
2020/12/11 10:25:03;;;;;;;89.30;33.10;;;;;;;3.23;100.00;99166.75;5227440;28;20424;-77
2020/12/11 10:27:33;;;;;;;79.03;30.48;;;;;;;3.36;100.00;99161.19;5214895;28;20033;-79
2020/12/11 10:30:03;;;;;;;80.78;30.45;;;;;;;3.34;100.00;99162.13;5219192;28;20021;-79
2020/12/11 10:32:34;;;;;;;83.57;28.42;;;;;;;3.34;100.00;99152.66;5217127;28;20074;-79
2020/12/11 10:35:06;;;;;;;83.72;29.42;;;;;;;3.35;100.00;99149.16;5209789;28;20041;-79
2020/12/11 10:37:36;;;;;;;81.45;30.27;;;;;;;3.38;100.00;99143.09;5209514;28;20025;-79
2020/12/11 10:40:06;;;;;;;81.38;31.30;;;;;;;3.44;100.00;99133.41;5211214;28;20022;-77
2020/12/11 10:42:37;;;;;;;78.45;30.30;;;;;;;3.43;100.00;99136.91;5226810;28;20457;-77
2020/12/11 10:45:07;;;;;;;74.95;29.02;;;;;;;3.47;100.00;99127.28;5218613;28;20089;-78
2020/12/11 10:47:37;;;;;;;75.50;29.55;;;;;;;3.47;100.00;99120.41;5213656;28;20462;-78
2020/12/11 10:50:08;;;;;;;72.88;28.13;;;;;;;3.53;100.00;99121.97;5209430;28;20044;-79
2020/12/11 10:52:38;;;;;;;71.10;28.48;;;;;;;3.51;100.00;99113.44;5212207;28;20025;-78
2020/12/11 10:55:10;;;;;;;71.45;28.52;;;;;;;3.58;100.00;99105.44;5214123;28;20025;-78
2020/12/11 10:57:41;;;;;;;76.28;28.73;;;;;;;3.59;100.00;99105.38;5229919;28;20052;-78
2020/12/11 11:00:11;;;;;;;64.90;26.80;;;;;;;3.59;100.00;99102.78;5222957;28;20016;-77
2020/12/11 11:02:44;;;;;;;65.95;26.40;;;;;;;3.59;100.00;99102.78;5235807;28;20029;-79
2020/12/11 11:05:14;;;;;;;67.70;27.58;;;;;;;3.64;100.00;99094.91;5236295;28;20393;-80
2020/12/11 11:07:45;;;;;;;67.13;27.25;;;;;;;3.65;100.00;99091.44;5235738;28;20032;-80
2020/12/11 11:10:27;;;;;;;68.55;28.27;;;;;;;3.60;100.00;99094.16;5236787;28;20043;-78
2020/12/11 11:13:14;;;;;;;66.10;26.80;;;;;;;3.70;100.00;99085.22;5236734;28;20032;-80
2020/12/11 11:15:50;;;;;;;61.97;25.50;;;;;;;3.66;100.00;99073.31;5233400;28;20040;-78
2020/12/11 11:24:46;;;;;;;59.75;24.27;;;;;;;3.62;100.00;99070.88;5215380;28;20043;-78
2020/12/11 11:26:37;;;;;;;62.40;25.52;;;;;;;3.57;100.00;99075.31;5218568;28;20041;-77
2020/12/11 11:29:08;;;;;;;57.00;25.25;;;;;;;3.59;100.00;99070.97;5231333;28;20021;-79
2020/12/11 11:31:38;;;;;;;62.20;25.83;;;;;;;3.62;100.00;99069.13;5230885;28;20028;-79
2020/12/11 11:34:08;;;;;;;62.45;26.45;;;;;;;3.61;100.00;99070.00;5224190;28;20479;-78
2020/12/11 11:36:39;;;;;;;60.80;25.05;;;;;;;3.63;100.00;99075.16;5232374;28;20029;-77
2020/12/11 11:39:09;;;;;;;61.70;25.67;;;;;;;3.68;100.00;99068.94;5222206;28;20082;-77
2020/12/11 11:41:44;;;;;;;59.30;25.58;;;;;;;3.71;100.00;99063.69;5220017;28;20445;-77
2020/12/11 11:46:53;;;;;;;57.67;24.10;;;;;;;3.75;100.00;99060.09;5222962;28;20033;-77
2020/12/11 11:49:29;;;;;;;58.88;24.40;;;;;;;3.70;100.00;99059.41;5221156;28;20021;-77
2020/12/11 11:54:45;;;;;;;56.80;24.10;;;;;;;3.62;100.00;99040.72;5216320;28;20029;-79
2020/12/11 11:57:16;;;;;;;53.17;23.92;;;;;;;3.65;100.00;99040.59;5225891;28;20103;-78
2020/12/11 11:59:46;;;;;;;54.95;24.48;;;;;;;3.71;100.00;99043.00;5224470;28;20033;-78
2020/12/11 12:02:16;;;;;;;54.88;24.95;;;;;;;3.70;100.00;99033.56;5214540;28;20052;-78
2020/12/11 12:04:46;;;;;;;58.35;25.52;;;;;;;3.79;100.00;99037.59;5214632;28;20028;-79
2020/12/11 12:07:17;;;;;;;54.40;24.35;;;;;;;3.77;100.00;99024.72;5224556;28;20025;-79
2020/12/11 12:09:47;;;;;;;55.20;24.60;;;;;;;3.77;100.00;99022.13;5235711;28;20446;-79
2020/12/11 12:12:17;;;;;;;59.33;26.45;;;;;;;3.92;100.00;99016.47;5234884;28;20036;-80
2020/12/11 12:14:49;;;;;;;56.58;23.92;;;;;;;3.90;100.00;99015.66;5230993;28;20025;-77
2020/12/11 12:17:28;;;;;;;57.58;25.15;;;;;;;3.95;100.00;99013.75;5219465;28;20095;-78
2020/12/11 12:20:03;;;;;;;59.35;24.67;;;;;;;3.97;100.00;99022.31;5234518;28;20024;-77
2020/12/11 12:23:45;;;;;;;53.47;24.80;;;;;;;4.06;100.00;99016.84;5235713;28;20375;-78
2020/12/11 12:31:05;;;;;;;53.58;24.52;;;;;;;3.97;100.00;99006.78;5212462;28;20051;-78
2020/12/11 12:36:58;;;;;;;51.40;23.17;;;;;;;4.01;100.00;99003.25;5212410;28;20017;-79
2020/12/11 12:44:27;;;;;;;57.50;25.42;;;;;;;4.01;100.00;99005.81;5232029;28;20040;-78
2020/12/11 12:46:57;;;;;;;54.35;25.00;;;;;;;4.06;100.00;98996.16;5223217;28;20025;-77
2020/12/11 12:49:27;;;;;;;55.47;24.55;;;;;;;3.99;100.00;98999.84;5217603;28;20037;-77
2020/12/11 12:51:58;;;;;;;52.22;25.33;;;;;;;4.05;100.00;99002.22;5227842;28;20309;-78
2020/12/11 12:54:28;;;;;;;50.47;25.15;;;;;;;3.98;100.00;98997.31;5234491;28;20066;-79
2020/12/11 12:57:01;;;;;;;51.33;25.50;;;;;;;4.03;100.00;98993.69;5223026;28;20040;-79
2020/12/11 13:04:42;;;;;;;58.03;26.85;;;;;;;3.99;100.00;98993.84;5214863;28;20143;-79